Time;durP1;ratioP1;P1;durP2;ratioP2;P2;SDS_P1;SDS_P2;PMS_P1;PMS_P2;Temp;Humidity;BMP_temperature;BMP_pressure;BME280_temperature;BME280_humidity;BME280_pressure;Samples;Min_cycle;Max_cycle;Signal;HPM_P1;HPM_P2
2023/03/27 00:01:23;;;;;;;0.00;0.00;;;7.20;99.90;;;;;;1864530;76;21117;-83
2023/03/27 00:04:15;;;;;;;0.00;0.00;;;7.20;99.90;;;;;;1896578;75;21121;-84
2023/03/27 00:09:47;;;;;;;0.00;0.00;;;7.10;99.90;;;;;;1957566;72;22226;-88
2023/03/27 00:12:38;;;;;;;0.00;0.00;;;7.00;99.90;;;;;;1920764;74;21492;-88
2023/03/27 00:15:30;;;;;;;0.00;0.00;;;7.00;99.90;;;;;;1917737;74;21193;-89
2023/03/27 00:18:21;;;;;;;0.10;0.10;;;7.00;99.90;;;;;;1922002;74;21157;-88
2023/03/27 00:21:13;;;;;;;0.75;0.10;;;7.00;99.90;;;;;;1919532;74;21051;-88
2023/03/27 00:24:04;;;;;;;0.10;0.10;;;6.90;99.90;;;;;;1936434;74;21193;-88
2023/03/27 00:26:57;;;;;;;0.35;0.10;;;7.00;99.90;;;;;;1929932;74;21103;-87
2023/03/27 00:29:49;;;;;;;0.00;0.00;;;7.00;99.90;;;;;;1930680;73;21118;-87
2023/03/27 00:35:20;;;;;;;0.88;0.20;;;7.10;99.90;;;;;;1951156;72;22228;-88
2023/03/27 00:38:12;;;;;;;0.30;0.30;;;7.20;99.90;;;;;;1896356;74;21554;-88
2023/03/27 00:41:04;;;;;;;0.40;0.20;;;7.30;99.90;;;;;;1883794;75;21130;-87
2023/03/27 00:43:57;;;;;;;2.52;0.25;;;7.30;99.90;;;;;;1898204;74;21183;-87
2023/03/27 00:49:33;;;;;;;0.20;0.13;;;7.30;99.90;;;;;;1925183;72;22169;-88
2023/03/27 00:52:28;;;;;;;0.13;0.13;;;7.30;99.90;;;;;;1894419;75;21134;-89
2023/03/27 00:58:09;;;;;;;0.30;0.10;;;7.30;99.90;;;;;;1943237;72;22197;-89
2023/03/27 01:01:01;;;;;;;0.40;0.15;;;7.30;99.90;;;;;;1902485;74;21106;-88
2023/03/27 01:03:54;;;;;;;1.17;0.45;;;7.30;99.90;;;;;;1889626;75;21134;-87
2023/03/27 01:09:26;;;;;;;0.25;0.20;;;7.30;99.90;;;;;;1945642;72;22177;-89
2023/03/27 01:15:24;;;;;;;0.20;0.10;;;7.30;99.90;;;;;;1937175;72;22225;-89
2023/03/27 01:18:22;;;;;;;1.75;0.20;;;7.20;99.90;;;;;;1896048;74;21169;-88
2023/03/27 01:21:27;;;;;;;;;;;7.20;99.90;;;;;;1875557;75;21137;-88
2023/03/27 01:25:01;;;;;;;0.53;0.20;;;7.20;99.90;;;;;;1898742;75;20168;-87
2023/03/27 01:28:10;;;;;;;1.17;0.20;;;7.20;99.90;;;;;;1877483;74;21055;-87
2023/03/27 01:31:06;;;;;;;0.33;0.20;;;7.20;99.90;;;;;;1872427;75;21046;-87
2023/03/27 01:34:30;;;;;;;0.23;0.20;;;7.30;99.90;;;;;;1886654;75;21145;-87
2023/03/27 01:40:19;;;;;;;0.42;0.30;;;7.30;99.90;;;;;;1947322;72;27914;-88
2023/03/27 01:43:14;;;;;;;0.20;0.20;;;7.40;99.90;;;;;;1920565;74;21114;-88
2023/03/27 01:54:20;;;;;;;0.55;0.25;;;7.50;99.90;;;;;;1935278;72;22151;-86
2023/03/27 01:57:19;;;;;;;0.50;0.20;;;7.50;99.90;;;;;;1888711;75;21134;-89
2023/03/27 02:00:16;;;;;;;0.20;0.20;;;7.50;99.90;;;;;;1891445;75;21071;-87
2023/03/27 02:05:55;;;;;;;0.15;0.15;;;7.50;99.90;;;;;;1937461;72;22205;-86
2023/03/27 02:08:50;;;;;;;0.13;0.10;;;7.40;99.90;;;;;;1906527;75;21066;-89
2023/03/27 02:17:14;;;;;;;0.30;0.08;;;7.00;99.90;;;;;;1966990;72;22186;-90
2023/03/27 02:20:13;;;;;;;0.93;0.10;;;6.90;99.90;;;;;;1917104;75;21669;-89
2023/03/27 02:25:54;;;;;;;0.10;0.10;;;6.90;99.90;;;;;;1948612;72;22197;-89
2023/03/27 02:35:08;;;;;;;0.00;0.00;;;6.60;99.90;;;;;;1949270;72;22256;-90
2023/03/27 02:38:08;;;;;;;0.00;0.00;;;6.60;99.90;;;;;;1928216;73;21142;-89
2023/03/27 02:41:08;;;;;;;0.00;0.00;;;6.70;99.90;;;;;;1919826;73;21231;-90
2023/03/27 02:44:11;;;;;;;;;;;6.70;99.90;;;;;;1923106;73;21102;-89
2023/03/27 02:47:15;;;;;;;0.13;0.03;;;6.70;99.90;;;;;;1928329;73;20202;-90
2023/03/27 02:50:19;;;;;;;0.00;0.00;;;6.60;99.90;;;;;;1921151;73;21116;-89
2023/03/27 02:53:13;;;;;;;0.10;0.00;;;6.50;99.90;;;;;;1919975;73;21093;-91
2023/03/27 03:13:31;;;;;;;0.00;0.00;;;6.20;99.90;;;;;;2032008;69;22163;-90
2023/03/27 03:16:26;;;;;;;0.20;0.00;;;6.10;99.90;;;;;;1970774;72;21071;-90
2023/03/27 03:22:03;;;;;;;0.10;0.00;;;6.10;99.90;;;;;;1946150;72;22216;-91
2023/03/27 03:24:56;;;;;;;0.00;0.00;;;6.20;99.90;;;;;;1904888;74;21135;-89
2023/03/27 03:30:44;;;;;;;0.00;0.00;;;6.30;99.90;;;;;;1950151;72;22672;-88
2023/03/27 03:33:35;;;;;;;0.00;0.00;;;6.30;99.90;;;;;;1923437;74;21181;-88
2023/03/27 03:36:29;;;;;;;0.00;0.00;;;6.40;99.90;;;;;;1940754;73;21084;-90
2023/03/27 03:41:58;;;;;;;0.00;0.00;;;6.50;99.90;;;;;;1938879;72;22263;-88
2023/03/27 03:44:50;;;;;;;0.00;0.00;;;6.60;99.90;;;;;;1895847;75;21115;-88
2023/03/27 03:47:43;;;;;;;0.20;0.10;;;6.60;99.90;;;;;;1883531;75;21060;-88
2023/03/27 03:50:38;;;;;;;0.65;0.05;;;6.80;99.90;;;;;;1892492;75;21087;-88
2023/03/27 03:56:12;;;;;;;1.60;0.20;;;6.80;99.90;;;;;;1937599;72;22203;-90
2023/03/27 03:59:04;;;;;;;1.30;0.40;;;6.90;99.90;;;;;;1884113;75;21057;-90
2023/03/27 04:04:36;;;;;;;0.33;0.23;;;6.80;99.90;;;;;;1946254;72;22237;-89
2023/03/27 04:07:30;;;;;;;0.30;0.28;;;6.80;99.90;;;;;;1905538;75;21160;-89
2023/03/27 04:10:24;;;;;;;1.50;0.30;;;6.80;99.90;;;;;;1883942;75;21136;-89
2023/03/27 04:13:17;;;;;;;0.37;0.33;;;6.90;99.90;;;;;;1900817;75;21090;-88
2023/03/27 04:16:10;;;;;;;0.93;0.30;;;7.00;99.90;;;;;;1897186;75;21118;-89
2023/03/27 04:19:04;;;;;;;0.47;0.40;;;7.10;99.90;;;;;;1893255;75;21071;-88
2023/03/27 04:22:00;;;;;;;0.80;0.30;;;7.10;99.90;;;;;;1904986;75;21094;-88
2023/03/27 04:24:53;;;;;;;0.35;0.28;;;7.10;99.90;;;;;;1913084;75;21119;-88
2023/03/27 04:30:26;;;;;;;0.20;0.20;;;7.20;99.90;;;;;;1939227;72;22226;-87
2023/03/27 04:33:40;;;;;;;0.10;0.10;;;7.20;99.90;;;;;;1886949;75;21604;-87
2023/03/27 04:39:23;;;;;;;0.45;0.20;;;7.20;99.90;;;;;;1926025;72;22174;-87
2023/03/27 04:44:54;;;;;;;0.20;0.20;;;7.30;99.90;;;;;;1950076;72;22195;-87
2023/03/27 04:47:47;;;;;;;0.20;0.20;;;7.30;99.90;;;;;;1896125;73;21232;-88
2023/03/27 04:50:42;;;;;;;0.45;0.30;;;7.20;99.90;;;;;;1903026;75;21097;-86
2023/03/27 04:56:15;;;;;;;1.40;0.33;;;7.30;99.90;;;;;;1939338;72;22143;-87
2023/03/27 04:59:07;;;;;;;0.62;0.40;;;7.30;99.90;;;;;;1900136;75;21159;-87
2023/03/27 05:02:01;;;;;;;0.40;0.40;;;7.30;99.90;;;;;;1890032;75;21148;-87
2023/03/27 05:10:16;;;;;;;0.70;0.30;;;7.30;99.90;;;;;;1934506;72;22268;-86
2023/03/27 05:13:11;;;;;;;0.55;0.30;;;7.30;99.90;;;;;;1918865;74;21603;-88
2023/03/27 05:18:44;;;;;;;1.35;0.57;;;7.40;99.90;;;;;;1916200;72;22375;-88
2023/03/27 05:21:36;;;;;;;0.57;0.50;;;7.40;99.90;;;;;;1888322;75;21184;-88
2023/03/27 05:24:29;;;;;;;0.82;0.75;;;7.40;99.90;;;;;;1916581;74;21130;-87
2023/03/27 05:27:20;;;;;;;0.53;0.50;;;7.40;99.90;;;;;;1894309;75;21110;-89
2023/03/27 05:30:15;;;;;;;0.57;0.40;;;7.40;99.90;;;;;;1911966;75;21054;-87
2023/03/27 05:33:08;;;;;;;0.53;0.40;;;7.40;99.90;;;;;;1915060;75;21102;-87
2023/03/27 05:36:01;;;;;;;1.02;0.30;;;7.40;99.90;;;;;;1897642;75;21081;-87
2023/03/27 05:38:53;;;;;;;0.57;0.40;;;7.40;99.90;;;;;;1916074;75;21158;-87
2023/03/27 05:44:31;;;;;;;0.80;0.50;;;7.50;99.90;;;;;;1933252;72;20241;-88
2023/03/27 05:47:23;;;;;;;1.25;0.40;;;7.50;99.90;;;;;;1873907;75;21192;-86
2023/03/27 05:50:18;;;;;;;0.30;0.30;;;7.50;99.90;;;;;;1870030;75;21176;-89
2023/03/27 05:55:52;;;;;;;0.47;0.42;;;7.40;99.90;;;;;;1952007;72;22563;-88
2023/03/27 05:58:45;;;;;;;1.60;0.40;;;7.40;99.90;;;;;;1930350;73;21557;-87
2023/03/27 06:04:21;;;;;;;0.80;0.30;;;7.40;99.90;;;;;;1912998;72;28180;-88
2023/03/27 06:07:15;;;;;;;0.20;0.10;;;7.60;99.90;;;;;;1872951;75;21122;-89
2023/03/27 06:10:09;;;;;;;0.30;0.20;;;7.70;99.90;;;;;;1881895;75;21043;-89
2023/03/27 06:13:08;;;;;;;0.30;0.30;;;7.60;99.90;;;;;;1890983;75;21176;-89
2023/03/27 06:16:02;;;;;;;0.88;0.40;;;7.60;99.90;;;;;;1883717;75;21177;-88
2023/03/27 06:18:56;;;;;;;2.47;0.40;;;7.80;99.90;;;;;;1802211;77;21151;-88
2023/03/27 06:21:47;;;;;;;0.80;0.60;;;7.80;99.90;;;;;;1830641;76;21096;-87
2023/03/27 06:24:41;;;;;;;1.35;0.50;;;7.70;99.90;;;;;;1885227;75;21072;-87
2023/03/27 06:30:20;;;;;;;1.00;0.80;;;7.60;99.90;;;;;;1911734;72;28066;-91
2023/03/27 06:33:14;;;;;;;1.17;0.60;;;7.70;99.90;;;;;;1893795;75;21055;-89
2023/03/27 06:36:08;;;;;;;2.20;0.85;;;7.60;99.90;;;;;;1875436;75;21152;-87
2023/03/27 06:39:03;;;;;;;1.90;1.40;;;7.60;99.90;;;;;;1894711;75;21095;-89
2023/03/27 06:41:56;;;;;;;1.82;1.60;;;7.60;99.90;;;;;;1883626;75;21116;-88
2023/03/27 06:44:55;;;;;;;2.70;1.30;;;7.50;99.90;;;;;;1886630;75;21125;-87
2023/03/27 06:50:35;;;;;;;1.45;0.93;;;7.60;99.90;;;;;;1949046;72;22198;-88
2023/03/27 06:53:28;;;;;;;1.60;1.00;;;7.60;99.90;;;;;;1899961;73;21127;-88
2023/03/27 06:56:22;;;;;;;1.30;1.02;;;7.70;99.90;;;;;;1885183;75;21159;-88
2023/03/27 06:59:32;;;;;;;2.30;1.40;;;7.70;99.90;;;;;;1894340;75;21086;-87
2023/03/27 07:02:24;;;;;;;4.97;1.55;;;7.70;99.90;;;;;;1909085;75;21050;-88
2023/03/27 07:05:36;;;;;;;1.77;1.30;;;7.70;99.90;;;;;;1892577;75;21085;-88
2023/03/27 07:11:12;;;;;;;1.60;1.00;;;7.80;99.90;;;;;;1942193;72;22209;-91
2023/03/27 07:14:05;;;;;;;1.75;1.20;;;7.80;99.90;;;;;;1894291;75;21194;-88
2023/03/27 07:16:57;;;;;;;6.47;1.00;;;7.80;99.90;;;;;;1897903;75;21155;-89
2023/03/27 07:19:52;;;;;;;0.70;0.70;;;7.90;99.90;;;;;;1905267;75;21184;-87
2023/03/27 07:25:35;;;;;;;1.80;1.30;;;8.00;99.90;;;;;;1929203;72;22115;-88
2023/03/27 07:28:27;;;;;;;1.30;1.20;;;8.10;99.90;;;;;;1869727;76;21249;-88
2023/03/27 07:31:20;;;;;;;1.47;1.15;;;8.20;99.90;;;;;;1873904;76;21818;-87
2023/03/27 07:34:14;;;;;;;1.82;1.50;;;8.30;99.90;;;;;;1890846;76;21148;-87
2023/03/27 07:37:07;;;;;;;3.20;1.80;;;8.30;99.90;;;;;;1824649;76;21111;-87
2023/03/27 07:40:00;;;;;;;1.50;1.20;;;8.30;99.90;;;;;;1871999;76;21125;-87
2023/03/27 07:42:53;;;;;;;3.33;1.60;;;8.30;99.90;;;;;;1876806;76;21087;-87
2023/03/27 07:45:44;;;;;;;1.95;1.70;;;8.30;99.90;;;;;;1875792;76;21066;-87
2023/03/27 07:48:36;;;;;;;2.83;2.02;;;8.30;99.90;;;;;;1875883;76;21198;-88
2023/03/27 07:54:12;;;;;;;1.37;1.00;;;8.30;99.90;;;;;;1949080;72;22590;-88
2023/03/27 07:57:04;;;;;;;1.00;0.88;;;8.50;99.90;;;;;;1930928;73;21114;-88
2023/03/27 08:02:49;;;;;;;0.70;0.60;;;8.10;99.90;;;;;;1942201;72;22120;-89
2023/03/27 08:05:41;;;;;;;2.30;1.35;;;8.00;99.90;;;;;;1888020;75;21133;-89
2023/03/27 08:08:51;;;;;;;0.82;0.70;;;7.80;99.90;;;;;;1909020;75;21167;-89
2023/03/27 08:14:28;;;;;;;1.07;0.90;;;7.70;99.90;;;;;;1917432;72;38928;-90
2023/03/27 08:17:25;;;;;;;2.25;0.90;;;7.60;99.90;;;;;;1909348;75;21184;-89
2023/03/27 08:20:17;;;;;;;2.45;0.60;;;7.40;99.90;;;;;;1898813;75;21078;-89
2023/03/27 08:26:19;;;;;;;1.27;1.00;;;7.20;99.90;;;;;;2044268;69;22204;-90
2023/03/27 08:29:21;;;;;;;1.80;0.88;;;7.20;99.90;;;;;;1993154;71;21078;-89
2023/03/27 08:32:13;;;;;;;2.85;1.20;;;7.20;99.90;;;;;;1992510;71;21071;-88
2023/03/27 08:38:17;;;;;;;1.35;1.00;;;7.30;99.90;;;;;;2050464;69;22238;-89
2023/03/27 08:41:26;;;;;;;1.22;1.05;;;7.40;99.90;;;;;;1971774;71;21140;-89
2023/03/27 08:44:28;;;;;;;0.95;0.68;;;7.50;99.90;;;;;;1995521;71;21043;-88
2023/03/27 08:47:25;;;;;;;2.42;0.93;;;7.50;99.90;;;;;;1980795;71;21131;-88
2023/03/27 08:53:03;;;;;;;1.57;1.00;;;7.70;99.90;;;;;;1952832;72;22237;-88
2023/03/27 08:55:58;;;;;;;2.20;1.30;;;7.90;99.90;;;;;;1917521;75;21205;-88
2023/03/27 08:58:57;;;;;;;2.22;1.20;;;8.00;99.90;;;;;;1917118;75;21137;-88
2023/03/27 09:01:55;;;;;;;1.62;1.00;;;8.00;99.90;;;;;;1939475;73;21156;-88
2023/03/27 09:04:50;;;;;;;1.15;0.70;;;8.10;99.90;;;;;;1934515;73;21123;-90
2023/03/27 09:07:46;;;;;;;2.08;1.12;;;8.00;99.90;;;;;;1933149;73;21098;-88
2023/03/27 09:10:49;;;;;;;0.80;0.70;;;8.10;99.90;;;;;;1917502;73;21199;-89
2023/03/27 09:19:13;;;;;;;2.27;1.60;;;8.20;99.90;;;;;;1927415;72;22197;-89
2023/03/27 09:24:50;;;;;;;3.65;1.45;;;8.30;99.90;;;;;;1953691;72;22249;-88
2023/03/27 09:27:53;;;;;;;2.72;1.42;;;8.40;99.90;;;;;;1916896;73;21285;-87
2023/03/27 09:30:58;;;;;;;2.10;1.20;;;8.30;99.90;;;;;;1919807;73;21111;-88
2023/03/27 09:34:16;;;;;;;2.10;1.20;;;8.30;99.90;;;;;;1927392;73;21215;-88
2023/03/27 09:40:18;;;;;;;3.00;1.55;;;8.30;99.90;;;;;;1959181;72;22175;-88
2023/03/27 09:43:15;;;;;;;1.67;0.90;;;8.10;99.90;;;;;;1901794;75;21118;-88
2023/03/27 09:46:11;;;;;;;1.72;1.00;;;8.10;99.90;;;;;;1907036;75;21742;-88
2023/03/27 09:51:48;;;;;;;2.75;0.72;;;8.20;99.90;;;;;;1938104;72;22276;-88
2023/03/27 09:54:55;;;;;;;2.55;0.80;;;8.20;99.90;;;;;;1904784;75;21177;-89
2023/03/27 10:00:38;;;;;;;2.02;0.85;;;8.40;99.90;;;;;;1965926;72;22225;-88
2023/03/27 10:06:18;;;;;;;2.17;1.15;;;8.40;99.90;;;;;;1941957;72;22214;-87
2023/03/27 10:09:23;;;;;;;1.35;0.90;;;8.50;99.90;;;;;;1898428;75;21063;-87
2023/03/27 10:12:21;;;;;;;1.90;0.90;;;8.50;99.90;;;;;;1896941;75;21095;-87
2023/03/27 10:15:32;;;;;;;3.27;1.40;;;8.60;99.90;;;;;;1892874;75;21099;-87
2023/03/27 10:18:27;;;;;;;1.37;0.70;;;8.60;99.90;;;;;;1893319;75;21062;-89
2023/03/27 10:24:30;;;;;;;2.12;0.93;;;8.50;99.90;;;;;;1949532;72;22233;-88
2023/03/27 10:27:26;;;;;;;2.33;1.30;;;8.50;99.90;;;;;;1891445;74;21095;-87
2023/03/27 10:33:32;;;;;;;2.25;1.47;;;8.40;99.90;;;;;;1952310;72;22229;-88
2023/03/27 10:39:26;;;;;;;2.77;1.17;;;8.50;99.90;;;;;;1926784;72;22331;-86
2023/03/27 10:44:58;;;;;;;1.85;0.88;;;8.50;99.90;;;;;;1950919;72;22393;-88
2023/03/27 10:50:37;;;;;;;2.25;1.40;;;8.60;99.90;;;;;;1955301;72;22209;-88
2023/03/27 10:53:36;;;;;;;4.00;1.90;;;8.60;99.90;;;;;;1915081;73;21162;-88
2023/03/27 11:04:51;;;;;;;3.20;1.27;;;8.70;99.90;;;;;;1943945;72;22151;-88
2023/03/27 11:10:24;;;;;;;4.10;1.77;;;8.70;99.90;;;;;;1939076;72;22381;-87
2023/03/27 11:15:58;;;;;;;3.30;1.40;;;8.30;99.90;;;;;;1938859;72;22249;-88
2023/03/27 11:18:55;;;;;;;2.35;1.40;;;8.30;99.90;;;;;;1898661;74;21142;-88
2023/03/27 11:21:50;;;;;;;3.62;1.80;;;8.20;99.90;;;;;;1872975;75;21090;-88
2023/03/27 11:24:48;;;;;;;1.92;1.50;;;8.20;99.90;;;;;;1893169;75;21128;-87
2023/03/27 11:27:44;;;;;;;2.15;1.20;;;8.20;99.90;;;;;;1878987;75;21135;-87
2023/03/27 11:33:31;;;;;;;2.50;1.50;;;8.30;99.90;;;;;;1946480;72;22191;-88
2023/03/27 11:36:36;;;;;;;3.67;1.75;;;8.40;99.90;;;;;;1893162;75;21110;-87
2023/03/27 11:39:40;;;;;;;2.08;1.40;;;8.40;99.90;;;;;;1893969;75;21063;-87
2023/03/27 11:45:16;;;;;;;3.02;1.55;;;8.40;99.90;;;;;;1930985;72;22261;-88
2023/03/27 11:48:40;;;;;;;4.03;1.40;;;8.60;99.90;;;;;;1890277;75;21156;-88
2023/03/27 11:51:56;;;;;;;4.00;1.52;;;8.50;99.90;;;;;;1878657;75;21188;-87
2023/03/27 11:57:46;;;;;;;3.55;1.02;;;8.40;99.90;;;;;;1931404;72;22218;-89
2023/03/27 12:00:43;;;;;;;1.92;0.82;;;8.20;99.90;;;;;;1881951;75;21062;-88
2023/03/27 12:03:53;;;;;;;1.70;1.02;;;8.00;99.90;;;;;;1883471;75;21454;-88
2023/03/27 12:06:52;;;;;;;0.88;0.75;;;7.90;99.90;;;;;;1872597;76;21538;-88
2023/03/27 12:09:51;;;;;;;2.58;1.15;;;7.90;99.90;;;;;;1888734;75;21102;-89
2023/03/27 12:16:16;;;;;;;5.03;1.82;;;7.90;99.90;;;;;;1959578;72;22155;-88
2023/03/27 12:19:28;;;;;;;3.60;1.15;;;7.80;99.90;;;;;;1917190;75;21209;-88
2023/03/27 12:22:42;;;;;;;3.98;1.77;;;7.80;99.90;;;;;;1898206;75;21159;-88
2023/03/27 12:25:51;;;;;;;0.93;0.80;;;7.90;99.90;;;;;;1930177;73;21153;-88
2023/03/27 12:29:01;;;;;;;4.62;1.52;;;7.90;99.90;;;;;;1937924;73;21549;-88
2023/03/27 12:32:16;;;;;;;3.55;1.17;;;8.00;99.90;;;;;;1916894;75;21111;-88
2023/03/27 12:35:11;;;;;;;4.28;1.10;;;8.10;99.90;;;;;;1940106;73;21109;-87
2023/03/27 12:38:13;;;;;;;5.10;1.98;;;8.20;99.90;;;;;;1917036;75;21106;-88
2023/03/27 12:41:09;;;;;;;3.00;1.30;;;8.30;99.90;;;;;;1942284;73;21066;-87
2023/03/27 12:44:06;;;;;;;1.47;1.05;;;8.40;99.90;;;;;;1929745;73;21537;-88
2023/03/27 12:47:17;;;;;;;0.90;0.60;;;8.40;99.90;;;;;;1917129;75;21150;-88
2023/03/27 12:50:20;;;;;;;3.75;1.50;;;8.40;99.90;;;;;;1916635;75;21203;-86
2023/03/27 13:06:00;;;;;;;3.80;1.22;;;8.30;99.90;;;;;;1975123;72;22198;-87
2023/03/27 13:09:26;;;;;;;4.33;0.95;;;8.30;99.90;;;;;;1879894;75;21134;-87
2023/03/27 13:12:47;;;;;;;3.72;1.00;;;8.50;99.90;;;;;;1916404;75;21117;-87
2023/03/27 13:15:48;;;;;;;1.60;0.70;;;8.50;99.90;;;;;;1939048;73;21202;-87
2023/03/27 13:19:07;;;;;;;3.10;1.37;;;8.40;99.90;;;;;;1917177;75;21136;-87
2023/03/27 13:22:19;;;;;;;4.90;1.65;;;8.30;99.90;;;;;;1939769;73;21119;-88
2023/03/27 13:25:20;;;;;;;3.15;1.00;;;8.30;99.90;;;;;;1923647;73;21174;-86
2023/03/27 13:28:38;;;;;;;4.12;0.90;;;8.40;99.90;;;;;;1925005;73;21560;-87
2023/03/27 13:32:18;;;;;;;5.05;1.62;;;8.40;99.90;;;;;;1917061;75;21084;-86
2023/03/27 13:35:35;;;;;;;4.25;1.22;;;8.30;99.90;;;;;;1939687;73;21160;-87
2023/03/27 13:41:56;;;;;;;4.85;1.30;;;8.70;99.90;;;;;;1966366;72;22245;-87
2023/03/27 13:45:12;;;;;;;1.65;0.68;;;8.60;99.90;;;;;;1926691;73;21070;-88
2023/03/27 13:48:49;;;;;;;3.60;1.05;;;8.70;99.90;;;;;;1927869;73;21504;-87
2023/03/27 13:52:02;;;;;;;3.75;1.40;;;8.80;99.90;;;;;;1916612;74;21169;-88
2023/03/27 13:55:20;;;;;;;3.67;1.25;;;8.90;99.90;;;;;;1916979;75;21100;-87
2023/03/27 13:58:28;;;;;;;2.12;0.93;;;8.90;99.90;;;;;;1932345;73;21086;-87
2023/03/27 14:01:36;;;;;;;3.70;1.00;;;8.90;99.90;;;;;;1916591;75;21136;-89
2023/03/27 14:04:53;;;;;;;2.47;0.88;;;8.90;99.90;;;;;;1929102;73;21126;-88
2023/03/27 14:08:11;;;;;;;2.70;0.93;;;9.10;99.90;;;;;;1917682;75;21099;-87
2023/03/27 14:11:25;;;;;;;2.85;0.85;;;9.10;99.90;;;;;;1916992;74;21064;-87
2023/03/27 14:17:39;;;;;;;3.50;0.98;;;9.20;99.90;;;;;;1957094;72;22124;-88
2023/03/27 14:20:42;;;;;;;1.32;0.90;;;9.30;99.90;;;;;;1883094;75;21157;-87
2023/03/27 14:23:39;;;;;;;4.80;1.10;;;10.10;99.90;;;;;;1904288;75;21095;-87
2023/03/27 14:26:33;;;;;;;4.83;1.42;;;10.20;99.90;;;;;;1883484;75;21204;-87
2023/03/27 14:29:27;;;;;;;4.00;1.20;;;10.50;99.90;;;;;;1884566;75;21220;-87
2023/03/27 14:32:19;;;;;;;1.50;0.90;;;10.40;99.90;;;;;;1872063;76;21558;-87
2023/03/27 14:35:44;;;;;;;3.17;0.78;;;9.60;99.90;;;;;;1893894;75;21126;-87
2023/03/27 14:38:40;;;;;;;3.02;1.05;;;9.10;99.90;;;;;;1872487;76;21208;-86
2023/03/27 14:41:32;;;;;;;3.27;1.10;;;8.80;99.90;;;;;;1894603;75;21230;-87
2023/03/27 14:44:26;;;;;;;2.70;0.90;;;8.70;99.90;;;;;;1894420;75;21103;-86
2023/03/27 14:47:22;;;;;;;2.90;0.70;;;8.70;99.90;;;;;;1857340;77;21090;-86
2023/03/27 14:50:17;;;;;;;2.65;0.95;;;9.20;99.90;;;;;;1889062;75;21102;-89
2023/03/27 14:53:12;;;;;;;2.35;0.70;;;9.20;99.90;;;;;;1884794;75;21128;-87
2023/03/27 14:56:27;;;;;;;3.17;0.95;;;9.40;99.90;;;;;;1892813;75;21111;-87
2023/03/27 14:59:24;;;;;;;4.47;1.10;;;10.50;99.90;;;;;;1902107;75;21134;-87
2023/03/27 15:02:25;;;;;;;3.47;0.95;;;11.50;99.90;;;;;;1882351;75;21162;-86
2023/03/27 15:05:21;;;;;;;1.82;1.20;;;11.30;99.90;;;;;;1882018;75;21210;-86
2023/03/27 15:08:21;;;;;;;3.70;0.85;;;11.40;99.90;;;;;;1872429;76;21220;-86
2023/03/27 15:11:16;;;;;;;4.47;0.95;;;10.90;99.90;;;;;;1887948;75;21103;-85
2023/03/27 15:14:17;;;;;;;3.15;0.93;;;10.80;99.90;;;;;;1893335;75;21059;-86
2023/03/27 15:17:14;;;;;;;2.20;0.70;;;10.80;99.90;;;;;;1859866;76;21203;-87
2023/03/27 15:20:09;;;;;;;2.05;0.90;;;11.10;99.90;;;;;;1873267;75;21583;-86
2023/03/27 15:23:08;;;;;;;2.10;0.90;;;11.00;99.90;;;;;;1894089;74;21092;-86
2023/03/27 15:26:03;;;;;;;1.62;0.70;;;10.20;99.90;;;;;;1889941;75;21095;-86
2023/03/27 15:29:00;;;;;;;4.60;1.20;;;9.50;99.90;;;;;;1884718;75;21107;-89
2023/03/27 15:31:52;;;;;;;4.45;1.15;;;9.30;99.90;;;;;;1882272;75;21088;-88
2023/03/27 15:34:47;;;;;;;3.27;1.20;;;9.10;99.90;;;;;;1882514;75;21091;-88
2023/03/27 15:37:42;;;;;;;3.08;0.90;;;8.90;99.90;;;;;;1882776;75;21118;-86
2023/03/27 15:40:36;;;;;;;3.62;0.95;;;8.90;99.90;;;;;;1888691;75;21099;-87
2023/03/27 15:43:33;;;;;;;3.02;1.07;;;8.90;99.90;;;;;;1903997;75;21162;-87
2023/03/27 15:46:25;;;;;;;3.02;1.10;;;8.80;99.90;;;;;;1882330;75;21577;-87
2023/03/27 15:49:27;;;;;;;3.27;1.27;;;8.70;99.90;;;;;;1900942;75;21149;-86
2023/03/27 15:52:32;;;;;;;2.35;0.78;;;8.80;99.90;;;;;;1894176;75;21048;-87
2023/03/27 15:55:41;;;;;;;4.70;0.85;;;8.70;99.90;;;;;;1872237;77;21169;-87
2023/03/27 15:58:42;;;;;;;2.12;1.00;;;8.80;99.90;;;;;;1816382;78;21192;-87
2023/03/27 16:01:39;;;;;;;2.33;1.12;;;8.70;99.90;;;;;;1872202;75;21352;-89
2023/03/27 16:04:40;;;;;;;2.67;1.00;;;8.60;99.90;;;;;;1883500;75;21128;-87
2023/03/27 16:07:36;;;;;;;1.20;0.57;;;8.60;99.90;;;;;;1873800;75;21124;-88
2023/03/27 16:10:32;;;;;;;1.65;0.72;;;8.60;99.90;;;;;;1872412;76;21240;-88
2023/03/27 16:13:30;;;;;;;3.25;0.90;;;8.60;99.90;;;;;;1893740;75;21083;-86
2023/03/27 16:16:26;;;;;;;2.50;0.70;;;8.50;99.90;;;;;;1890400;75;21228;-87
2023/03/27 16:19:25;;;;;;;3.65;0.80;;;8.50;99.90;;;;;;1886590;75;21140;-87
2023/03/27 16:22:23;;;;;;;0.53;0.33;;;8.50;99.90;;;;;;1883047;75;21409;-86
2023/03/27 16:25:14;;;;;;;3.58;0.82;;;8.50;99.90;;;;;;1882472;75;21125;-89
2023/03/27 16:28:09;;;;;;;2.05;0.70;;;8.40;99.90;;;;;;1882773;75;21089;-86
2023/03/27 16:31:22;;;;;;;2.90;0.70;;;8.40;99.90;;;;;;1885051;75;21142;-89
2023/03/27 16:34:16;;;;;;;3.62;1.15;;;8.40;99.90;;;;;;1871727;77;21214;-86
2023/03/27 16:37:10;;;;;;;2.70;0.80;;;8.40;99.90;;;;;;1886195;75;21174;-86
2023/03/27 16:40:02;;;;;;;2.27;0.80;;;8.40;99.90;;;;;;1881809;75;21392;-86
2023/03/27 16:42:54;;;;;;;2.65;0.70;;;8.50;99.90;;;;;;1892134;75;21099;-87
2023/03/27 16:45:46;;;;;;;3.00;0.68;;;8.40;99.90;;;;;;1867092;77;21164;-86
2023/03/27 16:48:37;;;;;;;2.10;0.60;;;8.40;99.90;;;;;;1887514;75;21169;-87
2023/03/27 16:51:29;;;;;;;1.42;0.47;;;8.40;99.90;;;;;;1882535;75;21103;-86
2023/03/27 16:54:26;;;;;;;2.33;0.70;;;8.30;99.90;;;;;;1876854;75;21055;-87
2023/03/27 16:57:18;;;;;;;1.55;0.40;;;8.40;99.90;;;;;;1873167;75;21478;-87
2023/03/27 17:00:13;;;;;;;3.42;0.80;;;8.40;99.90;;;;;;1886984;75;21114;-87
2023/03/27 17:03:05;;;;;;;3.40;1.00;;;8.40;99.90;;;;;;1886565;75;21153;-88
2023/03/27 17:06:01;;;;;;;2.77;0.78;;;8.30;99.90;;;;;;1873192;75;21129;-87
2023/03/27 17:08:54;;;;;;;2.87;0.93;;;8.30;99.90;;;;;;1899149;75;21156;-88
2023/03/27 17:11:46;;;;;;;3.10;0.70;;;8.30;99.90;;;;;;1881814;75;21206;-87
2023/03/27 17:14:37;;;;;;;1.95;0.70;;;8.30;99.90;;;;;;1871853;77;21102;-87
2023/03/27 17:17:29;;;;;;;2.25;0.70;;;8.30;99.90;;;;;;1883565;75;21178;-87
2023/03/27 17:20:21;;;;;;;2.22;0.60;;;8.20;99.90;;;;;;1894687;75;21155;-87
2023/03/27 17:23:14;;;;;;;2.95;0.57;;;8.30;99.90;;;;;;1891080;75;21114;-87
2023/03/27 17:26:06;;;;;;;1.42;0.50;;;8.20;99.90;;;;;;1891435;74;21115;-87
2023/03/27 17:28:59;;;;;;;1.57;0.50;;;8.20;99.90;;;;;;1892482;75;21142;-88
2023/03/27 17:31:51;;;;;;;4.17;0.80;;;8.10;99.90;;;;;;1888912;75;21184;-87
2023/03/27 17:34:42;;;;;;;1.27;0.40;;;8.00;99.90;;;;;;1883917;75;21189;-87
2023/03/27 17:37:35;;;;;;;2.20;0.88;;;8.00;99.90;;;;;;1878350;76;21156;-87
2023/03/27 17:40:28;;;;;;;3.90;1.07;;;7.90;99.90;;;;;;1876326;75;21523;-86
2023/03/27 17:43:20;;;;;;;1.75;0.50;;;7.90;99.90;;;;;;1892981;75;21355;-87
2023/03/27 17:46:14;;;;;;;1.62;0.50;;;8.00;99.90;;;;;;1883942;75;21204;-88
2023/03/27 17:49:06;;;;;;;3.80;0.95;;;8.20;99.90;;;;;;1888223;75;21058;-86
2023/03/27 17:51:58;;;;;;;1.85;0.60;;;8.10;99.90;;;;;;1893356;75;21193;-88
2023/03/27 17:54:50;;;;;;;1.95;0.62;;;8.10;99.90;;;;;;1854159;76;21089;-88
2023/03/27 17:57:43;;;;;;;2.08;1.05;;;8.10;99.90;;;;;;1887321;74;21143;-88
2023/03/27 18:03:25;;;;;;;2.47;0.70;;;8.10;99.90;;;;;;1937979;72;22155;-88
2023/03/27 18:06:18;;;;;;;2.15;0.60;;;8.20;99.90;;;;;;1884278;76;21096;-88
2023/03/27 18:09:09;;;;;;;2.60;0.75;;;8.10;99.90;;;;;;1916080;75;21051;-88
2023/03/27 18:12:01;;;;;;;1.95;0.60;;;8.10;99.90;;;;;;1891151;75;21087;-87
2023/03/27 18:14:52;;;;;;;2.37;0.60;;;8.10;99.90;;;;;;1905438;75;21095;-88
2023/03/27 18:17:43;;;;;;;2.72;0.95;;;8.10;99.90;;;;;;1885411;76;21149;-88
2023/03/27 18:20:37;;;;;;;2.80;0.80;;;8.00;99.90;;;;;;1884800;76;21215;-87
2023/03/27 18:23:28;;;;;;;1.07;0.40;;;8.00;99.90;;;;;;1906592;75;21143;-88
2023/03/27 18:26:20;;;;;;;2.50;1.05;;;8.00;99.90;;;;;;1906069;75;21111;-88
2023/03/27 18:29:12;;;;;;;1.95;0.75;;;7.90;99.90;;;;;;1900669;75;21121;-88
2023/03/27 18:32:04;;;;;;;2.00;0.78;;;7.80;99.90;;;;;;1895909;75;21125;-88
2023/03/27 18:34:55;;;;;;;4.28;0.80;;;7.80;99.90;;;;;;1894912;75;21063;-89
2023/03/27 18:37:47;;;;;;;3.62;0.78;;;7.80;99.90;;;;;;1895227;75;21168;-87
2023/03/27 18:40:38;;;;;;;3.70;0.65;;;7.80;99.90;;;;;;1898702;75;21147;-87
2023/03/27 18:43:30;;;;;;;2.95;0.75;;;8.00;99.90;;;;;;1895822;75;21512;-87
2023/03/27 18:46:22;;;;;;;2.77;0.68;;;8.00;99.90;;;;;;1883273;76;21123;-87
2023/03/27 18:49:13;;;;;;;3.20;0.82;;;7.90;99.90;;;;;;1908723;75;21091;-89
2023/03/27 18:52:06;;;;;;;3.12;0.50;;;7.90;99.90;;;;;;1898223;75;21173;-88
2023/03/27 18:54:58;;;;;;;3.47;0.72;;;7.90;99.90;;;;;;1883945;76;21553;-88
2023/03/27 18:57:50;;;;;;;1.60;0.70;;;7.90;99.90;;;;;;1883875;75;21116;-89
2023/03/27 19:00:55;;;;;;;1.57;0.50;;;7.90;99.90;;;;;;1883515;76;21146;-88
2023/03/27 19:03:47;;;;;;;2.70;0.60;;;7.90;99.90;;;;;;1893342;74;21174;-87
2023/03/27 19:06:41;;;;;;;2.05;0.60;;;7.90;99.90;;;;;;1907196;74;21505;-88
2023/03/27 19:09:32;;;;;;;2.72;0.93;;;7.90;99.90;;;;;;1907610;74;21131;-87